sensor_id;sensor_type;location;lat;lon;timestamp;pressure;altitude;pressure_sealevel;temperature
39959;BMP280;25639;53.634;9.880;2023-05-03T00:02:09;147304.03;;;-20.70
39959;BMP280;25639;53.634;9.880;2023-05-03T00:04:35;147287.84;;;-20.77
39959;BMP280;25639;53.634;9.880;2023-05-03T00:07:00;147295.34;;;-20.74
39959;BMP280;25639;53.634;9.880;2023-05-03T00:09:26;147286.63;;;-20.78
39959;BMP280;25639;53.634;9.880;2023-05-03T00:11:51;147270.44;;;-20.84
39959;BMP280;25639;53.634;9.880;2023-05-03T00:14:17;147267.94;;;-20.85
39959;BMP280;25639;53.634;9.880;2023-05-03T00:16:43;147276.66;;;-20.82
39959;BMP280;25639;53.634;9.880;2023-05-03T00:19:08;147260.50;;;-20.88
39959;BMP280;25639;53.634;9.880;2023-05-03T00:21:33;147249.31;;;-20.93
39959;BMP280;25639;53.634;9.880;2023-05-03T00:23:59;147243.09;;;-20.96
39959;BMP280;25639;53.634;9.880;2023-05-03T00:26:24;147230.66;;;-21.01
39959;BMP280;25639;53.634;9.880;2023-05-03T00:28:50;147226.94;;;-21.02
39959;BMP280;25639;53.634;9.880;2023-05-03T00:31:16;147228.16;;;-21.02
39959;BMP280;25639;53.634;9.880;2023-05-03T00:33:41;147229.41;;;-21.01
39959;BMP280;25639;53.634;9.880;2023-05-03T00:36:10;147205.78;;;-21.11
39959;BMP280;25639;53.634;9.880;2023-05-03T00:38:36;147198.31;;;-21.14
39959;BMP280;25639;53.634;9.880;2023-05-03T00:41:02;147193.34;;;-21.16
39959;BMP280;25639;53.634;9.880;2023-05-03T00:43:28;147193.34;;;-21.16
39959;BMP280;25639;53.634;9.880;2023-05-03T00:45:54;147154.81;;;-21.32
39959;BMP280;25639;53.634;9.880;2023-05-03T00:48:19;147144.91;;;-21.36
39959;BMP280;25639;53.634;9.880;2023-05-03T00:50:46;147144.91;;;-21.36
39959;BMP280;25639;53.634;9.880;2023-05-03T00:53:11;147146.13;;;-21.36
39959;BMP280;25639;53.634;9.880;2023-05-03T00:55:37;147126.25;;;-21.44
39959;BMP280;25639;53.634;9.880;2023-05-03T00:58:02;147116.34;;;-21.48
39959;BMP280;25639;53.634;9.880;2023-05-03T01:00:28;147133.69;;;-21.41
39959;BMP280;25639;53.634;9.880;2023-05-03T01:02:53;147127.50;;;-21.43
39959;BMP280;25639;53.634;9.880;2023-05-03T01:05:20;147131.22;;;-21.42
39959;BMP280;25639;53.634;9.880;2023-05-03T01:08:00;147122.56;;;-21.45
39959;BMP280;25639;53.634;9.880;2023-05-03T01:10:51;147111.38;;;-21.50
39959;BMP280;25639;53.634;9.880;2023-05-03T01:13:29;147089.00;;;-21.59
39959;BMP280;25639;53.634;9.880;2023-05-03T01:18:30;147086.50;;;-21.60
39959;BMP280;25639;53.634;9.880;2023-05-03T01:20:59;147080.31;;;-21.63
39959;BMP280;25639;53.634;9.880;2023-05-03T01:23:45;147098.94;;;-21.55
39959;BMP280;25639;53.634;9.880;2023-05-03T01:26:25;147096.47;;;-21.56
39959;BMP280;25639;53.634;9.880;2023-05-03T01:28:51;147098.94;;;-21.55
39959;BMP280;25639;53.634;9.880;2023-05-03T01:31:21;147113.88;;;-21.49
39959;BMP280;25639;53.634;9.880;2023-05-03T01:33:54;147103.91;;;-21.53
39959;BMP280;25639;53.634;9.880;2023-05-03T01:36:26;147118.84;;;-21.47
39959;BMP280;25639;53.634;9.880;2023-05-03T01:38:56;147118.84;;;-21.47
39959;BMP280;25639;53.634;9.880;2023-05-03T01:41:23;147127.50;;;-21.43
39959;BMP280;25639;53.634;9.880;2023-05-03T01:43:50;147127.50;;;-21.43
39959;BMP280;25639;53.634;9.880;2023-05-03T01:46:16;147129.94;;;-21.42
39959;BMP280;25639;53.634;9.880;2023-05-03T01:48:41;147142.38;;;-21.37
39959;BMP280;25639;53.634;9.880;2023-05-03T01:51:07;147147.34;;;-21.35
39959;BMP280;25639;53.634;9.880;2023-05-03T01:53:32;147163.53;;;-21.28
39959;BMP280;25639;53.634;9.880;2023-05-03T01:55:57;147177.19;;;-21.23
39959;BMP280;25639;53.634;9.880;2023-05-03T01:58:22;147193.34;;;-21.16
39959;BMP280;25639;53.634;9.880;2023-05-03T02:00:48;147195.88;;;-21.15
39959;BMP280;25639;53.634;9.880;2023-05-03T02:03:13;147216.94;;;-21.06
39959;BMP280;25639;53.634;9.880;2023-05-03T02:05:38;147224.44;;;-21.03
39959;BMP280;25639;53.634;9.880;2023-05-03T02:08:04;147246.78;;;-20.94
39959;BMP280;25639;53.634;9.880;2023-05-03T02:10:29;147241.84;;;-20.96
39959;BMP280;25639;53.634;9.880;2023-05-03T02:12:54;147251.81;;;-20.92
39959;BMP280;25639;53.634;9.880;2023-05-03T02:15:19;147258.00;;;-20.89
39959;BMP280;25639;53.634;9.880;2023-05-03T02:17:45;147254.28;;;-20.91
39959;BMP280;25639;53.634;9.880;2023-05-03T02:20:12;147256.78;;;-20.90
39959;BMP280;25639;53.634;9.880;2023-05-03T02:22:37;147261.75;;;-20.88
39959;BMP280;25639;53.634;9.880;2023-05-03T02:25:03;147285.34;;;-20.78
39959;BMP280;25639;53.634;9.880;2023-05-03T02:27:28;147270.44;;;-20.84
39959;BMP280;25639;53.634;9.880;2023-05-03T02:29:54;147280.38;;;-20.80
39959;BMP280;25639;53.634;9.880;2023-05-03T02:32:20;147305.25;;;-20.70
39959;BMP280;25639;53.634;9.880;2023-05-03T02:34:47;147305.25;;;-20.70
39959;BMP280;25639;53.634;9.880;2023-05-03T02:37:12;147323.91;;;-20.62
39959;BMP280;25639;53.634;9.880;2023-05-03T02:39:37;147327.66;;;-20.61
39959;BMP280;25639;53.634;9.880;2023-05-03T02:42:03;147307.72;;;-20.69
39959;BMP280;25639;53.634;9.880;2023-05-03T02:44:28;147342.50;;;-20.55
39959;BMP280;25639;53.634;9.880;2023-05-03T02:46:53;147359.97;;;-20.47
39959;BMP280;25639;53.634;9.880;2023-05-03T02:49:19;147356.22;;;-20.49
39959;BMP280;25639;53.634;9.880;2023-05-03T02:51:44;147358.69;;;-20.48
39959;BMP280;25639;53.634;9.880;2023-05-03T02:54:10;147384.81;;;-20.37
39959;BMP280;25639;53.634;9.880;2023-05-03T02:56:35;147392.28;;;-20.34
39959;BMP280;25639;53.634;9.880;2023-05-03T02:59:00;147409.69;;;-20.27
39959;BMP280;25639;53.634;9.880;2023-05-03T03:01:26;147415.91;;;-20.24
39959;BMP280;25639;53.634;9.880;2023-05-03T03:03:51;147429.63;;;-20.19
39959;BMP280;25639;53.634;9.880;2023-05-03T03:06:17;147439.56;;;-20.14
39959;BMP280;25639;53.634;9.880;2023-05-03T03:08:42;147452.00;;;-20.09
39959;BMP280;25639;53.634;9.880;2023-05-03T03:11:08;147439.56;;;-20.14
39959;BMP280;25639;53.634;9.880;2023-05-03T03:13:33;147466.94;;;-20.03
39959;BMP280;25639;53.634;9.880;2023-05-03T03:16:04;147466.94;;;-20.03
39959;BMP280;25639;53.634;9.880;2023-05-03T03:18:29;147478.16;;;-19.99
39959;BMP280;25639;53.634;9.880;2023-05-03T03:20:55;147468.16;;;-20.03
39959;BMP280;25639;53.634;9.880;2023-05-03T03:23:21;147475.63;;;-20.00
39959;BMP280;25639;53.634;9.880;2023-05-03T03:25:46;147484.34;;;-19.96
39959;BMP280;25639;53.634;9.880;2023-05-03T03:28:11;147505.50;;;-19.87
39959;BMP280;25639;53.634;9.880;2023-05-03T03:30:37;147500.53;;;-19.89
39959;BMP280;25639;53.634;9.880;2023-05-03T03:33:02;147496.81;;;-19.91
39959;BMP280;25639;53.634;9.880;2023-05-03T03:35:28;147496.81;;;-19.91
39959;BMP280;25639;53.634;9.880;2023-05-03T03:37:54;147508.03;;;-19.86
39959;BMP280;25639;53.634;9.880;2023-05-03T03:40:19;147535.38;;;-19.75
39959;BMP280;25639;53.634;9.880;2023-05-03T03:42:45;147536.63;;;-19.74
39959;BMP280;25639;53.634;9.880;2023-05-03T03:45:10;147531.66;;;-19.76
39959;BMP280;25639;53.634;9.880;2023-05-03T03:47:35;147524.16;;;-19.80
39959;BMP280;25639;53.634;9.880;2023-05-03T03:50:00;147526.66;;;-19.79
39959;BMP280;25639;53.634;9.880;2023-05-03T03:52:26;147524.16;;;-19.80
39959;BMP280;25639;53.634;9.880;2023-05-03T03:54:52;147530.41;;;-19.77
39959;BMP280;25639;53.634;9.880;2023-05-03T03:57:17;147516.72;;;-19.83
39959;BMP280;25639;53.634;9.880;2023-05-03T03:59:42;147534.16;;;-19.75
39959;BMP280;25639;53.634;9.880;2023-05-03T04:02:08;147535.38;;;-19.75
39959;BMP280;25639;53.634;9.880;2023-05-03T04:04:34;147545.28;;;-19.71
39959;BMP280;25639;53.634;9.880;2023-05-03T04:07:00;147532.88;;;-19.76
39959;BMP280;25639;53.634;9.880;2023-05-03T04:09:25;147561.47;;;-19.64
39959;BMP280;25639;53.634;9.880;2023-05-03T04:11:50;147587.63;;;-19.53
39959;BMP280;25639;53.634;9.880;2023-05-03T04:14:16;147603.81;;;-19.47
39959;BMP280;25639;53.634;9.880;2023-05-03T04:16:41;147615.00;;;-19.42
39959;BMP280;25639;53.634;9.880;2023-05-03T04:19:06;147623.72;;;-19.38
39959;BMP280;25639;53.634;9.880;2023-05-03T04:21:32;147672.31;;;-19.18
39959;BMP280;25639;53.634;9.880;2023-05-03T04:23:57;147683.50;;;-19.14
39959;BMP280;25639;53.634;9.880;2023-05-03T04:26:23;147690.97;;;-19.11
39959;BMP280;25639;53.634;9.880;2023-05-03T04:28:49;147683.50;;;-19.14
39959;BMP280;25639;53.634;9.880;2023-05-03T04:31:16;147693.44;;;-19.10
39959;BMP280;25639;53.634;9.880;2023-05-03T04:33:42;147725.84;;;-18.96
39959;BMP280;25639;53.634;9.880;2023-05-03T04:36:08;147732.06;;;-18.94
39959;BMP280;25639;53.634;9.880;2023-05-03T04:38:33;147758.22;;;-18.83
39959;BMP280;25639;53.634;9.880;2023-05-03T04:40:59;147761.97;;;-18.82
39959;BMP280;25639;53.634;9.880;2023-05-03T04:43:24;147784.34;;;-18.72
39959;BMP280;25639;53.634;9.880;2023-05-03T04:45:51;147813.00;;;-18.60
39959;BMP280;25639;53.634;9.880;2023-05-03T04:48:16;147805.53;;;-18.64
39959;BMP280;25639;53.634;9.880;2023-05-03T04:50:42;147821.72;;;-18.57
39959;BMP280;25639;53.634;9.880;2023-05-03T04:53:07;147814.25;;;-18.60
39959;BMP280;25639;53.634;9.880;2023-05-03T04:55:32;147835.44;;;-18.51
39959;BMP280;25639;53.634;9.880;2023-05-03T04:57:58;147864.13;;;-18.39
39959;BMP280;25639;53.634;9.880;2023-05-03T05:00:23;147862.88;;;-18.40
39959;BMP280;25639;53.634;9.880;2023-05-03T05:02:49;147901.47;;;-18.24
39959;BMP280;25639;53.634;9.880;2023-05-03T05:05:15;147922.69;;;-18.15
39959;BMP280;25639;53.634;9.880;2023-05-03T05:07:41;147941.41;;;-18.08
39959;BMP280;25639;53.634;9.880;2023-05-03T05:10:07;147967.59;;;-17.97
39959;BMP280;25639;53.634;9.880;2023-05-03T05:12:32;148012.41;;;-17.78
39959;BMP280;25639;53.634;9.880;2023-05-03T05:14:57;148033.63;;;-17.70
39959;BMP280;25639;53.634;9.880;2023-05-03T05:17:23;148061.03;;;-17.58
39959;BMP280;25639;53.634;9.880;2023-05-03T05:19:50;148112.19;;;-17.37
39959;BMP280;25639;53.634;9.880;2023-05-03T05:22:16;148133.41;;;-17.29
39959;BMP280;25639;53.634;9.880;2023-05-03T05:24:41;148158.38;;;-17.18
39959;BMP280;25639;53.634;9.880;2023-05-03T05:27:07;148189.56;;;-17.05
39959;BMP280;25639;53.634;9.880;2023-05-03T05:29:32;148209.50;;;-16.97
39959;BMP280;25639;53.634;9.880;2023-05-03T05:31:57;148298.09;;;-16.61
39959;BMP280;25639;53.634;9.880;2023-05-03T05:34:24;148280.63;;;-16.68
39959;BMP280;25639;53.634;9.880;2023-05-03T05:36:50;148290.59;;;-16.64
39959;BMP280;25639;53.634;9.880;2023-05-03T05:39:16;148339.28;;;-16.44
39959;BMP280;25639;53.634;9.880;2023-05-03T05:41:41;148355.53;;;-16.37
39959;BMP280;25639;53.634;9.880;2023-05-03T05:44:07;148371.75;;;-16.30
39959;BMP280;25639;53.634;9.880;2023-05-03T05:46:32;148391.72;;;-16.22
39959;BMP280;25639;53.634;9.880;2023-05-03T05:48:57;148427.97;;;-16.07
39959;BMP280;25639;53.634;9.880;2023-05-03T05:51:23;148475.38;;;-15.88
39959;BMP280;25639;53.634;9.880;2023-05-03T05:53:48;148499.16;;;-15.78
39959;BMP280;25639;53.634;9.880;2023-05-03T05:56:14;148514.06;;;-15.72
39959;BMP280;25639;53.634;9.880;2023-05-03T05:58:39;148564.09;;;-15.51
39959;BMP280;25639;53.634;9.880;2023-05-03T06:01:04;148635.31;;;-15.22
39959;BMP280;25639;53.634;9.880;2023-05-03T06:03:31;148734.06;;;-14.82
39959;BMP280;25639;53.634;9.880;2023-05-03T06:05:56;148864.09;;;-14.28
39959;BMP280;25639;53.634;9.880;2023-05-03T06:08:22;148961.69;;;-13.88
39959;BMP280;25639;53.634;9.880;2023-05-03T06:10:47;148970.44;;;-13.85
39959;BMP280;25639;53.634;9.880;2023-05-03T06:13:12;149028.00;;;-13.61
39959;BMP280;25639;53.634;9.880;2023-05-03T06:15:39;149121.88;;;-13.23
39959;BMP280;25639;53.634;9.880;2023-05-03T06:18:04;149198.25;;;-12.91
39959;BMP280;25639;53.634;9.880;2023-05-03T06:20:30;149299.75;;;-12.50
39959;BMP280;25639;53.634;9.880;2023-05-03T06:22:55;149338.59;;;-12.34
39959;BMP280;25639;53.634;9.880;2023-05-03T06:25:20;149354.84;;;-12.27
39959;BMP280;25639;53.634;9.880;2023-05-03T06:27:45;149356.16;;;-12.26
39959;BMP280;25639;53.634;9.880;2023-05-03T06:30:11;149364.91;;;-12.23
39959;BMP280;25639;53.634;9.880;2023-05-03T06:32:40;149382.47;;;-12.16
39959;BMP280;25639;53.634;9.880;2023-05-03T06:35:06;149405.00;;;-12.06
39959;BMP280;25639;53.634;9.880;2023-05-03T06:37:32;149417.56;;;-12.01
39959;BMP280;25639;53.634;9.880;2023-05-03T06:39:57;149324.78;;;-12.39
39959;BMP280;25639;53.634;9.880;2023-05-03T06:42:22;149363.63;;;-12.23
39959;BMP280;25639;53.634;9.880;2023-05-03T06:44:47;149357.38;;;-12.26
39959;BMP280;25639;53.634;9.880;2023-05-03T06:47:13;149428.81;;;-11.97
39959;BMP280;25639;53.634;9.880;2023-05-03T06:49:38;149492.72;;;-11.71
39959;BMP280;25639;53.634;9.880;2023-05-03T06:52:03;149531.59;;;-11.55
39959;BMP280;25639;53.634;9.880;2023-05-03T06:54:29;149427.56;;;-11.97
39959;BMP280;25639;53.634;9.880;2023-05-03T06:56:54;149481.41;;;-11.75
39959;BMP280;25639;53.634;9.880;2023-05-03T06:59:19;149575.47;;;-11.37
39959;BMP280;25639;53.634;9.880;2023-05-03T07:01:45;149674.59;;;-10.96
39959;BMP280;25639;53.634;9.880;2023-05-03T07:04:11;149749.88;;;-10.65
39959;BMP280;25639;53.634;9.880;2023-05-03T07:06:36;149933.13;;;-9.90
39959;BMP280;25639;53.634;9.880;2023-05-03T07:09:02;150031.06;;;-9.50
39959;BMP280;25639;53.634;9.880;2023-05-03T07:11:28;150087.59;;;-9.27
39959;BMP280;25639;53.634;9.880;2023-05-03T07:13:54;150000.91;;;-9.63
39959;BMP280;25639;53.634;9.880;2023-05-03T07:16:20;149848.94;;;-10.25
39959;BMP280;25639;53.634;9.880;2023-05-03T07:18:46;149712.22;;;-10.81
39959;BMP280;25639;53.634;9.880;2023-05-03T07:21:12;149480.16;;;-11.76
39959;BMP280;25639;53.634;9.880;2023-05-03T07:23:38;149509.03;;;-11.64
39959;BMP280;25639;53.634;9.880;2023-05-03T07:26:04;149457.63;;;-11.85
39959;BMP280;25639;53.634;9.880;2023-05-03T07:28:29;149611.84;;;-11.22
39959;BMP280;25639;53.634;9.880;2023-05-03T07:30:54;149744.88;;;-10.67
39959;BMP280;25639;53.634;9.880;2023-05-03T07:33:20;149690.88;;;-10.89
39959;BMP280;25639;53.634;9.880;2023-05-03T07:35:46;149589.28;;;-11.31
39959;BMP280;25639;53.634;9.880;2023-05-03T07:38:11;149458.84;;;-11.84
39959;BMP280;25639;53.634;9.880;2023-05-03T07:40:37;149393.72;;;-12.11
39959;BMP280;25639;53.634;9.880;2023-05-03T07:43:02;149397.47;;;-12.10
39959;BMP280;25639;53.634;9.880;2023-05-03T07:45:28;149480.16;;;-11.76
39959;BMP280;25639;53.634;9.880;2023-05-03T07:47:54;149486.41;;;-11.73
39959;BMP280;25639;53.634;9.880;2023-05-03T07:50:20;149599.28;;;-11.27
39959;BMP280;25639;53.634;9.880;2023-05-03T07:52:46;149620.63;;;-11.18
39959;BMP280;25639;53.634;9.880;2023-05-03T07:55:18;149653.25;;;-11.05
39959;BMP280;25639;53.634;9.880;2023-05-03T07:57:44;149723.53;;;-10.76
39959;BMP280;25639;53.634;9.880;2023-05-03T08:00:09;149680.84;;;-10.94
39959;BMP280;25639;53.634;9.880;2023-05-03T08:02:36;149663.28;;;-11.01
39959;BMP280;25639;53.634;9.880;2023-05-03T08:05:02;149662.03;;;-11.01
39959;BMP280;25639;53.634;9.880;2023-05-03T08:07:29;149510.28;;;-11.63
39959;BMP280;25639;53.634;9.880;2023-05-03T08:09:54;149418.78;;;-12.01
39959;BMP280;25639;53.634;9.880;2023-05-03T08:12:25;149420.03;;;-12.00
39959;BMP280;25639;53.634;9.880;2023-05-03T08:14:52;149336.06;;;-12.35
39959;BMP280;25639;53.634;9.880;2023-05-03T08:17:18;149312.28;;;-12.44
39959;BMP280;25639;53.634;9.880;2023-05-03T08:19:43;149377.41;;;-12.18
39959;BMP280;25639;53.634;9.880;2023-05-03T08:22:09;149307.22;;;-12.47
39959;BMP280;25639;53.634;9.880;2023-05-03T08:24:36;149284.69;;;-12.56
39959;BMP280;25639;53.634;9.880;2023-05-03T08:27:02;149386.19;;;-12.14
39959;BMP280;25639;53.634;9.880;2023-05-03T08:29:27;149436.34;;;-11.94
39959;BMP280;25639;53.634;9.880;2023-05-03T08:31:53;149520.28;;;-11.59
39959;BMP280;25639;53.634;9.880;2023-05-03T08:34:18;149605.59;;;-11.24
39959;BMP280;25639;53.634;9.880;2023-05-03T08:36:43;149792.56;;;-10.48
39959;BMP280;25639;53.634;9.880;2023-05-03T08:39:09;150004.69;;;-9.61
39959;BMP280;25639;53.634;9.880;2023-05-03T08:41:35;149949.41;;;-9.84
39959;BMP280;25639;53.634;9.880;2023-05-03T08:44:03;149896.66;;;-10.05
39959;BMP280;25639;53.634;9.880;2023-05-03T08:46:31;149818.91;;;-10.37
39959;BMP280;25639;53.634;9.880;2023-05-03T08:49:01;149723.53;;;-10.76
39959;BMP280;25639;53.634;9.880;2023-05-03T08:51:26;149608.06;;;-11.23
39959;BMP280;25639;53.634;9.880;2023-05-03T08:53:52;149742.34;;;-10.68
39959;BMP280;25639;53.634;9.880;2023-05-03T08:56:41;149675.84;;;-10.96
39959;BMP280;25639;53.634;9.880;2023-05-03T08:59:07;149710.97;;;-10.81
39959;BMP280;25639;53.634;9.880;2023-05-03T09:01:37;149715.97;;;-10.79
39959;BMP280;25639;53.634;9.880;2023-05-03T09:04:03;149806.34;;;-10.42
39959;BMP280;25639;53.634;9.880;2023-05-03T09:06:28;149960.72;;;-9.79
39959;BMP280;25639;53.634;9.880;2023-05-03T09:08:56;150184.34;;;-8.88
39959;BMP280;25639;53.634;9.880;2023-05-03T09:11:23;150160.50;;;-8.97
39959;BMP280;25639;53.634;9.880;2023-05-03T09:13:50;149939.38;;;-9.88
39959;BMP280;25639;53.634;9.880;2023-05-03T09:16:25;150014.72;;;-9.57
39959;BMP280;25639;53.634;9.880;2023-05-03T09:19:01;150503.72;;;-7.57
39959;BMP280;25639;53.634;9.880;2023-05-03T09:21:27;150540.22;;;-7.42
39959;BMP280;25639;53.634;9.880;2023-05-03T09:23:53;150432.03;;;-7.87
39959;BMP280;25639;53.634;9.880;2023-05-03T09:26:33;150268.56;;;-8.53
39959;BMP280;25639;53.634;9.880;2023-05-03T09:28:59;150019.72;;;-9.55
39959;BMP280;25639;53.634;9.880;2023-05-03T09:31:31;149949.41;;;-9.84
39959;BMP280;25639;53.634;9.880;2023-05-03T09:33:58;149886.63;;;-10.09
39959;BMP280;25639;53.634;9.880;2023-05-03T09:36:24;149904.22;;;-10.02
39959;BMP280;25639;53.634;9.880;2023-05-03T09:38:50;149870.31;;;-10.16
39959;BMP280;25639;53.634;9.880;2023-05-03T09:41:28;150081.34;;;-9.30
39959;BMP280;25639;53.634;9.880;2023-05-03T09:43:54;150056.19;;;-9.40
39959;BMP280;25639;53.634;9.880;2023-05-03T09:46:21;150240.94;;;-8.65
39959;BMP280;25639;53.634;9.880;2023-05-03T09:48:49;150155.44;;;-8.99
39959;BMP280;25639;53.634;9.880;2023-05-03T09:51:15;150212.00;;;-8.76
39959;BMP280;25639;53.634;9.880;2023-05-03T09:53:40;150152.94;;;-9.01
39959;BMP280;25639;53.634;9.880;2023-05-03T09:56:08;150033.59;;;-9.49
39959;BMP280;25639;53.634;9.880;2023-05-03T09:58:36;149954.47;;;-9.82
39959;BMP280;25639;53.634;9.880;2023-05-03T10:01:02;150007.22;;;-9.60
39959;BMP280;25639;53.634;9.880;2023-05-03T10:03:33;149983.31;;;-9.70
39959;BMP280;25639;53.634;9.880;2023-05-03T10:06:00;149790.03;;;-10.49
39959;BMP280;25639;53.634;9.880;2023-05-03T10:08:39;149856.50;;;-10.22
39959;BMP280;25639;53.634;9.880;2023-05-03T10:11:07;149851.47;;;-10.24
39959;BMP280;25639;53.634;9.880;2023-05-03T10:13:33;149850.25;;;-10.24
39959;BMP280;25639;53.634;9.880;2023-05-03T10:16:04;149801.34;;;-10.44
39959;BMP280;25639;53.634;9.880;2023-05-03T10:18:31;149939.38;;;-9.88
39959;BMP280;25639;53.634;9.880;2023-05-03T10:21:01;149977.06;;;-9.72
39959;BMP280;25639;53.634;9.880;2023-05-03T10:23:29;149941.91;;;-9.87
39959;BMP280;25639;53.634;9.880;2023-05-03T10:28:34;149820.16;;;-10.37
39959;BMP280;25639;53.634;9.880;2023-05-03T10:31:00;149798.81;;;-10.45
39959;BMP280;25639;53.634;9.880;2023-05-03T10:33:33;149801.34;;;-10.44
39959;BMP280;25639;53.634;9.880;2023-05-03T10:36:05;149974.53;;;-9.73
39959;BMP280;25639;53.634;9.880;2023-05-03T10:38:31;150234.66;;;-8.67
39959;BMP280;25639;53.634;9.880;2023-05-03T10:40:57;150108.97;;;-9.18
39959;BMP280;25639;53.634;9.880;2023-05-03T10:46:00;150460.94;;;-7.75
39959;BMP280;25639;53.634;9.880;2023-05-03T10:48:27;150761.78;;;-6.52
39959;BMP280;25639;53.634;9.880;2023-05-03T10:50:53;150540.22;;;-7.42
39959;BMP280;25639;53.634;9.880;2023-05-03T10:53:47;150652.25;;;-6.97
39959;BMP280;25639;53.634;9.880;2023-05-03T10:56:13;150352.81;;;-8.19
39959;BMP280;25639;53.634;9.880;2023-05-03T10:58:44;150651.00;;;-6.97
39959;BMP280;25639;53.634;9.880;2023-05-03T11:01:13;150752.97;;;-6.56
39959;BMP280;25639;53.634;9.880;2023-05-03T11:06:36;150886.47;;;-6.01
39959;BMP280;25639;53.634;9.880;2023-05-03T11:09:04;150726.53;;;-6.66
39959;BMP280;25639;53.634;9.880;2023-05-03T11:11:31;150589.31;;;-7.22
39959;BMP280;25639;53.634;9.880;2023-05-03T11:13:56;150258.53;;;-8.57
39959;BMP280;25639;53.634;9.880;2023-05-03T11:16:22;150250.97;;;-8.60
39959;BMP280;25639;53.634;9.880;2023-05-03T11:18:47;150335.19;;;-8.26
39959;BMP280;25639;53.634;9.880;2023-05-03T11:21:14;150449.66;;;-7.79
39959;BMP280;25639;53.634;9.880;2023-05-03T11:23:40;150425.72;;;-7.89
39959;BMP280;25639;53.634;9.880;2023-05-03T11:26:06;150301.22;;;-8.40
39959;BMP280;25639;53.634;9.880;2023-05-03T11:28:31;150180.59;;;-8.89
39959;BMP280;25639;53.634;9.880;2023-05-03T11:30:57;150347.72;;;-8.21
39959;BMP280;25639;53.634;9.880;2023-05-03T11:33:22;150546.53;;;-7.40
39959;BMP280;25639;53.634;9.880;2023-05-03T11:35:47;150652.25;;;-6.97
39959;BMP280;25639;53.634;9.880;2023-05-03T11:38:12;150741.63;;;-6.60
39959;BMP280;25639;53.634;9.880;2023-05-03T11:40:38;150897.81;;;-5.97
39959;BMP280;25639;53.634;9.880;2023-05-03T11:43:04;150820.97;;;-6.28
39959;BMP280;25639;53.634;9.880;2023-05-03T11:45:38;150988.53;;;-5.60
39959;BMP280;25639;53.634;9.880;2023-05-03T11:48:04;151028.84;;;-5.43
39959;BMP280;25639;53.634;9.880;2023-05-03T11:53:13;151308.75;;;-4.29
39959;BMP280;25639;53.634;9.880;2023-05-03T11:55:44;151050.28;;;-5.34
39959;BMP280;25639;53.634;9.880;2023-05-03T11:58:13;150865.03;;;-6.10
39959;BMP280;25639;53.634;9.880;2023-05-03T12:00:42;150663.56;;;-6.92
39959;BMP280;25639;53.634;9.880;2023-05-03T12:03:07;150398.06;;;-8.00
39959;BMP280;25639;53.634;9.880;2023-05-03T12:05:34;150070.00;;;-9.34
39959;BMP280;25639;53.634;9.880;2023-05-03T12:08:00;150131.56;;;-9.09
39959;BMP280;25639;53.634;9.880;2023-05-03T12:10:30;150095.16;;;-9.24
39959;BMP280;25639;53.634;9.880;2023-05-03T12:12:57;150204.50;;;-8.79
39959;BMP280;25639;53.634;9.880;2023-05-03T12:15:31;150346.50;;;-8.21
39959;BMP280;25639;53.634;9.880;2023-05-03T12:17:59;150341.47;;;-8.24
39959;BMP280;25639;53.634;9.880;2023-05-03T12:20:26;150326.41;;;-8.30
39959;BMP280;25639;53.634;9.880;2023-05-03T12:22:56;150393.03;;;-8.02
39959;BMP280;25639;53.634;9.880;2023-05-03T12:25:21;150351.50;;;-8.19
39959;BMP280;25639;53.634;9.880;2023-05-03T12:27:47;150450.88;;;-7.79
39959;BMP280;25639;53.634;9.880;2023-05-03T12:30:13;150555.34;;;-7.36
39959;BMP280;25639;53.634;9.880;2023-05-03T12:32:38;150603.16;;;-7.17
39959;BMP280;25639;53.634;9.880;2023-05-03T12:35:04;150668.63;;;-6.90
39959;BMP280;25639;53.634;9.880;2023-05-03T12:37:30;150585.53;;;-7.24
39959;BMP280;25639;53.634;9.880;2023-05-03T12:39:56;150323.88;;;-8.31
39959;BMP280;25639;53.634;9.880;2023-05-03T12:42:21;150366.63;;;-8.13
39959;BMP280;25639;53.634;9.880;2023-05-03T12:44:46;150497.47;;;-7.60
39959;BMP280;25639;53.634;9.880;2023-05-03T12:47:11;150535.19;;;-7.44
39959;BMP280;25639;53.634;9.880;2023-05-03T12:49:38;150326.41;;;-8.30
39959;BMP280;25639;53.634;9.880;2023-05-03T12:52:03;150550.31;;;-7.38
39959;BMP280;25639;53.634;9.880;2023-05-03T12:54:29;150318.84;;;-8.33
39959;BMP280;25639;53.634;9.880;2023-05-03T12:56:54;150541.50;;;-7.42
39959;BMP280;25639;53.634;9.880;2023-05-03T12:59:19;150200.72;;;-8.81
39959;BMP280;25639;53.634;9.880;2023-05-03T13:01:45;150072.53;;;-9.33
39959;BMP280;25639;53.634;9.880;2023-05-03T13:04:10;150168.00;;;-8.94
39959;BMP280;25639;53.634;9.880;2023-05-03T13:06:36;150327.63;;;-8.29
39959;BMP280;25639;53.634;9.880;2023-05-03T13:09:03;150542.75;;;-7.41
39959;BMP280;25639;53.634;9.880;2023-05-03T13:11:28;150630.84;;;-7.05
39959;BMP280;25639;53.634;9.880;2023-05-03T13:13:53;150601.88;;;-7.17
39959;BMP280;25639;53.634;9.880;2023-05-03T13:16:19;150450.88;;;-7.79
39959;BMP280;25639;53.634;9.880;2023-05-03T13:18:44;150520.09;;;-7.51
39959;BMP280;25639;53.634;9.880;2023-05-03T13:21:09;150520.09;;;-7.51
39959;BMP280;25639;53.634;9.880;2023-05-03T13:23:36;150474.78;;;-7.69
39959;BMP280;25639;53.634;9.880;2023-05-03T13:26:01;150415.66;;;-7.93
39959;BMP280;25639;53.634;9.880;2023-05-03T13:28:26;150322.63;;;-8.31
39959;BMP280;25639;53.634;9.880;2023-05-03T13:30:52;150235.91;;;-8.67
39959;BMP280;25639;53.634;9.880;2023-05-03T13:33:17;150342.72;;;-8.23
39959;BMP280;25639;53.634;9.880;2023-05-03T13:35:42;150289.94;;;-8.45
39959;BMP280;25639;53.634;9.880;2023-05-03T13:38:07;150263.53;;;-8.55
39959;BMP280;25639;53.634;9.880;2023-05-03T13:40:33;150139.13;;;-9.06
39959;BMP280;25639;53.634;9.880;2023-05-03T13:42:58;150235.91;;;-8.67
39959;BMP280;25639;53.634;9.880;2023-05-03T13:45:23;150382.94;;;-8.07
39959;BMP280;25639;53.634;9.880;2023-05-03T13:47:49;150411.91;;;-7.95
39959;BMP280;25639;53.634;9.880;2023-05-03T13:50:14;150440.84;;;-7.83
39959;BMP280;25639;53.634;9.880;2023-05-03T13:52:39;150421.94;;;-7.91
39959;BMP280;25639;53.634;9.880;2023-05-03T13:55:06;150346.50;;;-8.21
39959;BMP280;25639;53.634;9.880;2023-05-03T13:57:32;150356.53;;;-8.17
39959;BMP280;25639;53.634;9.880;2023-05-03T13:59:57;150445.88;;;-7.81